Time;durP1;ratioP1;P1;durP2;ratioP2;P2;SDS_P1;SDS_P2;PMS_P1;PMS_P2;Temp;Humidity;BMP_temperature;BMP_pressure;BME280_temperature;BME280_humidity;BME280_pressure;Samples;Min_cycle;Max_cycle;Signal;HPM_P1;HPM_P2
2022/01/24 00:01:47;;;;;;;47.60;28.02;;;7.30;83.00;;;;;;5031739;28;20099;-60
2022/01/24 00:04:13;;;;;;;41.75;25.65;;;7.30;83.00;;;;;;5032153;28;20034;-65
2022/01/24 00:06:40;;;;;;;45.25;27.38;;;7.30;83.00;;;;;;5031645;28;20045;-66
2022/01/24 00:09:07;;;;;;;49.90;29.35;;;7.30;82.90;;;;;;5031723;28;20112;-66
2022/01/24 00:11:43;;;;;;;48.97;29.35;;;7.30;82.80;;;;;;5031414;28;20033;-66
2022/01/24 00:28:07;;;;;;;57.40;33.03;;;7.30;82.40;;;;;;5031398;28;20035;-61
2022/01/24 00:30:33;;;;;;;51.90;33.15;;;7.30;82.20;;;;;;5013527;28;20030;-60
2022/01/24 00:32:58;;;;;;;51.83;30.98;;;7.30;82.30;;;;;;5030460;28;20423;-66
2022/01/24 00:35:25;;;;;;;52.00;32.03;;;7.30;82.20;;;;;;5030537;28;20030;-66
2022/01/24 00:37:51;;;;;;;53.30;32.03;;;7.30;82.30;;;;;;5030907;28;20099;-66
2022/01/24 00:40:16;;;;;;;48.70;30.92;;;7.30;82.40;;;;;;5019566;28;20477;-66
2022/01/24 00:47:50;;;;;;;51.33;32.40;;;7.30;82.00;;;;;;5012509;28;20044;-66
2022/01/24 00:54:00;;;;;;;53.65;33.63;;;7.30;82.10;;;;;;5029507;28;20084;-66
2022/01/24 00:55:48;;;;;;;50.75;30.90;;;7.30;82.10;;;;;;5015740;28;20033;-66
2022/01/24 00:58:14;;;;;;;52.65;32.75;;;7.30;82.20;;;;;;5029998;28;20350;-66
2022/01/24 01:00:40;;;;;;;52.45;32.00;;;7.30;82.30;;;;;;5029840;28;20030;-66
2022/01/24 01:03:06;;;;;;;49.88;30.73;;;7.30;82.20;;;;;;5029646;28;20060;-66
2022/01/24 01:06:17;;;;;;;50.78;30.75;;;7.30;82.00;;;;;;5029899;28;20068;-66
2022/01/24 01:18:57;;;;;;;47.70;28.88;;;7.30;81.80;;;;;;5015155;28;20072;-60
2022/01/24 01:21:23;;;;;;;49.05;30.63;;;7.30;81.80;;;;;;5028670;28;20043;-66
2022/01/24 01:23:53;;;;;;;43.83;26.67;;;7.20;81.70;;;;;;5029056;28;20034;-66
2022/01/24 01:26:36;;;;;;;43.25;27.88;;;7.20;81.40;;;;;;5029148;28;20041;-66
2022/01/24 01:29:18;;;;;;;39.95;26.88;;;7.20;80.50;;;;;;5029260;28;20033;-66
2022/01/24 01:32:14;;;;;;;42.50;27.20;;;7.20;80.70;;;;;;5029198;28;20095;-66
2022/01/24 01:56:07;;;;;;;40.17;26.15;;;7.20;81.10;;;;;;5029385;28;20163;-60
2022/01/24 01:58:33;;;;;;;39.90;26.27;;;7.20;80.80;;;;;;5029502;28;20025;-65
2022/01/24 02:01:02;;;;;;;36.55;24.85;;;7.20;80.20;;;;;;5029143;28;20401;-66
2022/01/24 02:03:29;;;;;;;39.80;25.02;;;7.20;80.00;;;;;;5029562;28;20455;-66
2022/01/24 02:05:56;;;;;;;36.35;24.38;;;7.20;80.20;;;;;;5028703;28;20026;-66
2022/01/24 02:08:30;;;;;;;38.20;24.45;;;7.20;80.50;;;;;;5029113;28;20041;-65
2022/01/24 02:10:57;;;;;;;37.25;24.63;;;7.20;80.80;;;;;;5028925;28;20544;-66
2022/01/24 02:13:25;;;;;;;39.40;24.48;;;7.20;81.10;;;;;;5029381;28;20473;-65
2022/01/24 02:16:16;;;;;;;35.25;24.33;;;7.20;81.10;;;;;;5028694;28;20108;-66
2022/01/24 02:19:06;;;;;;;38.50;24.08;;;7.20;80.80;;;;;;5029222;28;20037;-66
2022/01/24 02:21:42;;;;;;;36.53;23.38;;;7.20;80.80;;;;;;5029649;28;20037;-66
2022/01/24 02:24:10;;;;;;;39.40;23.70;;;7.20;80.70;;;;;;5032635;28;20500;-66
2022/01/24 02:26:35;;;;;;;34.75;23.38;;;7.20;80.80;;;;;;5032770;28;20125;-66
2022/01/24 02:29:32;;;;;;;32.80;21.73;;;7.20;80.80;;;;;;5033171;28;20112;-66
2022/01/24 02:31:58;;;;;;;30.63;20.63;;;7.20;80.00;;;;;;5032404;28;20041;-66
2022/01/24 02:34:37;;;;;;;26.48;18.98;;;7.10;79.30;;;;;;5032439;28;20029;-66
2022/01/24 02:37:10;;;;;;;29.77;20.20;;;7.10;79.10;;;;;;5032561;28;20034;-66
2022/01/24 02:53:09;;;;;;;32.10;20.58;;;7.10;79.20;;;;;;4994683;28;20088;-60
2022/01/24 02:55:37;;;;;;;33.72;21.38;;;7.10;79.40;;;;;;5015023;28;20473;-60
2022/01/24 02:58:03;;;;;;;29.40;20.15;;;7.00;78.30;;;;;;5014951;28;20249;-66
2022/01/24 03:00:28;;;;;;;28.98;20.13;;;7.00;78.50;;;;;;5032762;28;20119;-66
2022/01/24 03:02:54;;;;;;;31.08;21.45;;;7.10;78.60;;;;;;5031444;28;20473;-66
2022/01/24 03:05:20;;;;;;;29.58;20.55;;;7.10;78.90;;;;;;5032793;28;20463;-66
2022/01/24 03:07:45;;;;;;;30.52;20.25;;;7.10;78.60;;;;;;5032047;28;20404;-66
2022/01/24 03:10:24;;;;;;;32.17;21.65;;;7.10;78.70;;;;;;5016546;28;20099;-66
2022/01/24 03:13:08;;;;;;;29.10;20.38;;;7.10;78.70;;;;;;5030897;28;20334;-66
2022/01/24 03:15:34;;;;;;;28.48;19.17;;;7.00;78.40;;;;;;5031504;28;20029;-66
2022/01/24 03:18:00;;;;;;;29.48;19.30;;;7.00;78.40;;;;;;5031736;28;20396;-66
2022/01/24 03:20:25;;;;;;;26.80;19.45;;;7.00;78.70;;;;;;5032262;28;20069;-66
2022/01/24 03:22:51;;;;;;;28.75;19.23;;;7.00;79.00;;;;;;5013943;28;20037;-66
2022/01/24 03:25:17;;;;;;;29.48;19.60;;;7.10;79.10;;;;;;5031721;28;20065;-65
2022/01/24 03:27:42;;;;;;;27.70;19.52;;;7.10;79.20;;;;;;5031809;28;20033;-60
2022/01/24 03:30:08;;;;;;;28.63;20.17;;;7.00;79.40;;;;;;5014353;28;20103;-60
2022/01/24 03:32:34;;;;;;;28.27;18.67;;;7.00;79.50;;;;;;5013519;28;20033;-65
2022/01/24 03:35:00;;;;;;;29.70;19.80;;;7.00;80.30;;;;;;5031160;28;20075;-66
2022/01/24 03:37:25;;;;;;;29.35;19.45;;;7.00;79.90;;;;;;5032070;28;20064;-66
2022/01/24 03:39:51;;;;;;;32.38;21.50;;;7.00;80.10;;;;;;5014146;28;20041;-65
2022/01/24 03:42:16;;;;;;;30.48;19.92;;;7.00;80.70;;;;;;5014252;28;20029;-65
2022/01/24 03:44:45;;;;;;;32.67;20.58;;;7.00;80.20;;;;;;5012940;28;20037;-66
2022/01/24 03:48:02;;;;;;;28.88;19.50;;;7.00;80.30;;;;;;5031224;28;20520;-66
2022/01/24 03:50:00;;;;;;;28.90;19.50;;;6.90;80.40;;;;;;5020867;28;20519;-65
2022/01/24 03:52:30;;;;;;;29.02;19.50;;;6.90;80.50;;;;;;5013666;28;20021;-65
2022/01/24 03:54:56;;;;;;;29.35;19.38;;;6.90;80.70;;;;;;5030947;28;20040;-66
2022/01/24 03:57:22;;;;;;;29.88;20.38;;;6.90;80.90;;;;;;5012902;28;20033;-66
2022/01/24 03:59:48;;;;;;;29.75;19.92;;;6.90;81.00;;;;;;5031970;28;20033;-66
2022/01/24 04:02:16;;;;;;;28.73;19.40;;;6.90;81.00;;;;;;5029784;28;20025;-66
2022/01/24 04:04:42;;;;;;;30.30;20.50;;;6.90;81.00;;;;;;5041770;28;20025;-65
2022/01/24 04:07:09;;;;;;;29.40;19.92;;;6.90;81.00;;;;;;5031110;28;20037;-65
2022/01/24 04:09:35;;;;;;;33.35;20.00;;;6.90;81.10;;;;;;5031609;28;20026;-66
2022/01/24 04:12:02;;;;;;;30.23;19.67;;;6.80;81.20;;;;;;5030125;28;20587;-65
2022/01/24 04:14:36;;;;;;;28.90;20.38;;;6.90;81.40;;;;;;5028619;28;20448;-66
2022/01/24 04:22:12;;;;;;;33.05;20.40;;;6.80;81.60;;;;;;5030808;28;20037;-65
2022/01/24 04:24:39;;;;;;;32.20;20.35;;;6.80;81.60;;;;;;4992901;28;20034;-66
2022/01/24 04:27:06;;;;;;;34.80;22.48;;;6.80;81.50;;;;;;5013155;28;20050;-66
2022/01/24 04:29:32;;;;;;;32.63;21.23;;;6.80;81.50;;;;;;5030281;28;20021;-66
2022/01/24 04:31:59;;;;;;;32.78;20.55;;;6.80;81.60;;;;;;5029928;28;20026;-66
2022/01/24 04:34:24;;;;;;;34.17;21.75;;;6.80;81.70;;;;;;5012360;28;20037;-65
2022/01/24 04:36:50;;;;;;;30.67;20.67;;;6.80;81.60;;;;;;5024346;28;20026;-66
2022/01/24 04:39:17;;;;;;;31.55;20.42;;;6.80;81.50;;;;;;5031035;28;20061;-60
2022/01/24 04:41:46;;;;;;;30.98;19.80;;;6.80;81.50;;;;;;5031232;28;20373;-60
2022/01/24 04:56:56;;;;;;;30.75;19.98;;;6.80;82.10;;;;;;5030136;28;20041;-67
2022/01/24 04:59:22;;;;;;;30.30;19.98;;;6.80;82.20;;;;;;5014660;28;20499;-66
2022/01/24 05:01:48;;;;;;;30.85;20.00;;;6.80;82.30;;;;;;5027943;28;20072;-65
2022/01/24 05:04:14;;;;;;;33.25;19.38;;;6.70;82.30;;;;;;5029262;28;20558;-66
2022/01/24 05:06:40;;;;;;;32.92;19.52;;;6.70;83.00;;;;;;5028777;28;20029;-66
2022/01/24 05:09:06;;;;;;;29.90;18.50;;;6.80;82.50;;;;;;5030125;28;20445;-66
2022/01/24 05:23:27;;;;;;;31.90;20.42;;;6.80;82.60;;;;;;5029500;28;20044;-66
2022/01/24 05:25:01;;;;;;;31.27;19.27;;;6.70;82.60;;;;;;5014020;28;20041;-65
2022/01/24 05:27:27;;;;;;;34.45;21.05;;;6.70;82.60;;;;;;5029269;28;20041;-66
2022/01/24 05:29:54;;;;;;;31.80;21.17;;;6.70;82.70;;;;;;5030029;28;20042;-66
2022/01/24 05:32:19;;;;;;;36.65;22.83;;;6.70;82.70;;;;;;5011231;28;20041;-66
2022/01/24 05:34:45;;;;;;;33.97;22.90;;;6.70;82.70;;;;;;5011681;28;20025;-66
2022/01/24 05:37:11;;;;;;;35.10;23.17;;;6.70;82.30;;;;;;5011547;28;20072;-66
2022/01/24 05:39:36;;;;;;;35.60;22.40;;;6.70;82.20;;;;;;5029661;28;20080;-66
2022/01/24 05:42:02;;;;;;;32.05;20.63;;;6.70;82.10;;;;;;5029472;28;20113;-66
2022/01/24 05:44:28;;;;;;;30.83;20.55;;;6.70;81.50;;;;;;5029255;28;20374;-66
2022/01/24 05:46:53;;;;;;;30.55;20.42;;;6.60;81.40;;;;;;5028546;28;20354;-66
2022/01/24 05:49:19;;;;;;;27.65;19.50;;;6.70;81.60;;;;;;5029866;28;20084;-66
2022/01/24 05:51:45;;;;;;;27.35;19.20;;;6.60;81.70;;;;;;5029407;28;20389;-66
2022/01/24 05:54:11;;;;;;;27.25;18.40;;;6.70;81.60;;;;;;5011471;28;20228;-66
2022/01/24 05:56:37;;;;;;;24.20;17.65;;;6.70;81.60;;;;;;5010673;28;20091;-66
2022/01/24 05:59:03;;;;;;;24.88;18.88;;;6.70;81.70;;;;;;5029497;28;20037;-66
2022/01/24 06:01:28;;;;;;;25.77;17.10;;;6.70;81.80;;;;;;5030675;28;20069;-66
2022/01/24 06:03:54;;;;;;;25.70;17.13;;;6.70;81.60;;;;;;5028811;28;20025;-65
2022/01/24 06:06:19;;;;;;;25.33;17.80;;;6.70;81.80;;;;;;5028972;28;20034;-66
2022/01/24 06:08:45;;;;;;;22.55;16.88;;;6.70;81.80;;;;;;4994925;28;20824;-61
2022/01/24 06:11:11;;;;;;;25.95;18.05;;;6.70;81.70;;;;;;5011566;28;20041;-60
2022/01/24 06:13:36;;;;;;;24.95;17.60;;;6.70;81.60;;;;;;5029954;28;20025;-61
2022/01/24 06:16:02;;;;;;;28.45;19.80;;;6.70;81.60;;;;;;5027899;28;20638;-60
2022/01/24 06:18:28;;;;;;;26.65;18.38;;;6.70;81.70;;;;;;5027557;28;20492;-60
2022/01/24 06:20:54;;;;;;;27.60;19.42;;;6.70;81.70;;;;;;5026957;28;20032;-60
2022/01/24 06:23:20;;;;;;;25.40;18.35;;;6.70;81.70;;;;;;5030262;28;20037;-61
2022/01/24 06:25:46;;;;;;;26.65;18.73;;;6.60;81.70;;;;;;5011313;28;20451;-61
2022/01/24 06:28:12;;;;;;;27.13;19.33;;;6.70;81.60;;;;;;5029239;28;20034;-61
2022/01/24 06:30:38;;;;;;;25.42;18.60;;;6.70;81.60;;;;;;5029148;28;20027;-61
2022/01/24 06:33:03;;;;;;;24.15;17.80;;;6.60;81.60;;;;;;5028856;28;20381;-60
2022/01/24 06:35:29;;;;;;;24.77;17.63;;;6.60;81.40;;;;;;5028685;28;20029;-60
2022/01/24 06:37:55;;;;;;;24.48;17.92;;;6.60;81.20;;;;;;5029045;28;20514;-60
2022/01/24 06:40:21;;;;;;;21.15;16.70;;;6.60;81.20;;;;;;5029211;28;20033;-60
2022/01/24 06:42:46;;;;;;;24.38;16.70;;;6.60;81.10;;;;;;5025195;28;20503;-60
2022/01/24 06:45:12;;;;;;;23.25;16.25;;;6.60;80.80;;;;;;5010427;28;20041;-60
2022/01/24 06:47:40;;;;;;;22.73;16.80;;;6.60;80.90;;;;;;5000090;28;20380;-61
2022/01/24 06:50:06;;;;;;;21.77;16.13;;;6.60;80.90;;;;;;5022589;28;20025;-60
2022/01/24 06:52:32;;;;;;;22.85;17.38;;;6.60;80.80;;;;;;5024263;28;20034;-60
2022/01/24 06:54:58;;;;;;;23.02;16.85;;;6.60;80.80;;;;;;5025256;28;20095;-60
2022/01/24 06:57:24;;;;;;;23.45;17.58;;;6.60;80.70;;;;;;5026140;28;20113;-61
2022/01/24 06:59:50;;;;;;;22.75;17.98;;;6.60;80.70;;;;;;5021252;28;20033;-60
2022/01/24 07:02:16;;;;;;;22.90;16.60;;;6.60;80.80;;;;;;5008782;28;20022;-60
2022/01/24 07:04:44;;;;;;;24.40;17.25;;;6.60;81.00;;;;;;5020907;28;20509;-60
2022/01/24 07:07:11;;;;;;;22.83;16.45;;;6.60;80.80;;;;;;5024456;28;20025;-60
2022/01/24 07:09:37;;;;;;;23.08;16.75;;;6.60;80.70;;;;;;5027240;28;20022;-66
2022/01/24 07:12:04;;;;;;;24.50;18.27;;;6.50;80.60;;;;;;5026046;28;20033;-66
2022/01/24 07:14:29;;;;;;;22.88;17.40;;;6.60;80.60;;;;;;5030797;28;20348;-66
2022/01/24 07:19:30;;;;;;;21.30;16.45;;;6.50;80.50;;;;;;5029087;28;20061;-66
2022/01/24 07:21:58;;;;;;;20.95;16.38;;;6.50;80.30;;;;;;5025306;28;20026;-66
2022/01/24 07:24:25;;;;;;;20.27;15.73;;;6.50;80.30;;;;;;5020758;28;20468;-66
2022/01/24 07:26:51;;;;;;;21.73;16.65;;;6.50;80.40;;;;;;5030002;28;20273;-66
2022/01/24 07:29:17;;;;;;;21.63;16.25;;;6.50;80.40;;;;;;5014226;28;20034;-66
2022/01/24 07:31:43;;;;;;;21.05;16.30;;;6.50;80.50;;;;;;5030081;28;20040;-65
2022/01/24 07:34:09;;;;;;;21.98;16.27;;;6.50;80.60;;;;;;5030535;28;20029;-66
2022/01/24 07:36:35;;;;;;;20.63;16.10;;;6.50;80.60;;;;;;5030304;28;20489;-64
2022/01/24 07:39:48;;;;;;;23.15;16.13;;;6.50;80.70;;;;;;5021434;28;20045;-64
2022/01/24 07:42:02;;;;;;;22.60;16.08;;;6.60;80.80;;;;;;5012722;28;20039;-64
2022/01/24 07:44:28;;;;;;;21.02;15.45;;;6.50;80.40;;;;;;5031420;28;20460;-64
2022/01/24 07:46:53;;;;;;;21.92;15.95;;;6.50;80.40;;;;;;5029406;28;20377;-64
2022/01/24 07:49:19;;;;;;;20.10;15.10;;;6.50;80.40;;;;;;5030948;28;20104;-65
2022/01/24 07:51:45;;;;;;;20.92;16.02;;;6.50;80.30;;;;;;5029185;28;20473;-65
2022/01/24 07:54:11;;;;;;;21.60;16.05;;;6.50;80.30;;;;;;5029264;28;20261;-65
2022/01/24 07:56:38;;;;;;;20.92;16.02;;;6.50;80.30;;;;;;5030322;28;20104;-65
2022/01/24 07:59:05;;;;;;;19.48;15.75;;;6.50;80.20;;;;;;5030522;28;20029;-65
2022/01/24 08:01:31;;;;;;;21.20;16.70;;;6.50;80.20;;;;;;5030114;28;20068;-65
2022/01/24 08:03:57;;;;;;;21.48;16.65;;;6.60;80.20;;;;;;5029836;28;20061;-65
2022/01/24 08:06:23;;;;;;;19.25;16.10;;;6.60;80.20;;;;;;5029040;28;20499;-66
2022/01/24 08:08:48;;;;;;;18.33;15.38;;;6.60;80.20;;;;;;5030479;28;20080;-65
2022/01/24 08:11:17;;;;;;;19.83;15.82;;;6.60;80.10;;;;;;5015844;28;20053;-66
2022/01/24 08:13:43;;;;;;;18.75;14.95;;;6.60;80.00;;;;;;5029689;28;20021;-65
2022/01/24 08:16:10;;;;;;;17.80;14.25;;;6.60;79.80;;;;;;5027211;28;20526;-65
2022/01/24 08:18:35;;;;;;;16.75;13.80;;;6.60;79.80;;;;;;5028218;28;20473;-65
2022/01/24 08:21:01;;;;;;;15.38;12.85;;;6.50;79.40;;;;;;5030838;28;20056;-65
2022/01/24 08:23:27;;;;;;;14.05;11.77;;;6.50;79.50;;;;;;5030941;28;20072;-65
2022/01/24 08:25:52;;;;;;;16.73;12.65;;;6.50;79.40;;;;;;5029455;28;20057;-66
2022/01/24 08:28:18;;;;;;;16.33;12.52;;;6.50;79.30;;;;;;5013309;28;20381;-66
2022/01/24 08:30:45;;;;;;;14.32;11.43;;;6.50;78.80;;;;;;5022891;28;20329;-65
2022/01/24 08:33:10;;;;;;;15.98;12.32;;;6.50;79.00;;;;;;5037763;28;20029;-61
2022/01/24 08:35:37;;;;;;;15.15;11.60;;;6.50;78.90;;;;;;5016226;28;20030;-61
2022/01/24 08:38:04;;;;;;;17.38;13.35;;;6.50;78.90;;;;;;5028598;28;20095;-62
2022/01/24 08:40:32;;;;;;;14.52;12.02;;;6.50;78.90;;;;;;5010916;28;20053;-61
2022/01/24 08:48:28;;;;;;;15.85;12.05;;;6.50;78.70;;;;;;4986130;28;20182;-61
2022/01/24 08:50:55;;;;;;;16.52;12.57;;;6.50;78.80;;;;;;5018650;28;20131;-61
2022/01/24 08:53:23;;;;;;;16.00;12.07;;;6.50;78.90;;;;;;5030274;28;20044;-62
2022/01/24 08:55:49;;;;;;;16.88;13.43;;;6.60;79.00;;;;;;5013746;28;20029;-61
2022/01/24 08:58:17;;;;;;;16.83;13.05;;;6.60;78.60;;;;;;5028382;28;20419;-61
2022/01/24 09:00:45;;;;;;;16.83;12.85;;;6.60;78.80;;;;;;5029365;28;20022;-61
2022/01/24 09:03:14;;;;;;;18.20;13.00;;;6.60;78.70;;;;;;5030020;28;20049;-62
2022/01/24 09:05:40;;;;;;;16.52;13.20;;;6.60;78.70;;;;;;5035663;28;20014;-61
2022/01/24 09:08:07;;;;;;;18.00;13.40;;;6.60;78.80;;;;;;5028986;28;20034;-61
2022/01/24 09:10:35;;;;;;;14.80;12.35;;;6.60;78.60;;;;;;5029869;28;20036;-61
2022/01/24 09:13:01;;;;;;;16.58;12.30;;;6.60;78.10;;;;;;5029294;28;20036;-61
2022/01/24 09:15:27;;;;;;;16.55;12.85;;;6.60;77.70;;;;;;5028965;28;20047;-61
2022/01/24 09:17:53;;;;;;;14.77;12.93;;;6.60;78.00;;;;;;5028979;28;20025;-61
2022/01/24 09:20:19;;;;;;;15.80;12.63;;;6.50;77.80;;;;;;4997696;28;20047;-61
2022/01/24 09:22:46;;;;;;;15.68;12.85;;;6.60;78.10;;;;;;5025102;28;20393;-61
2022/01/24 09:25:15;;;;;;;15.73;12.75;;;6.60;77.40;;;;;;5007164;28;20060;-61
2022/01/24 09:27:43;;;;;;;15.95;13.45;;;6.50;77.50;;;;;;5015732;28;20547;-61
2022/01/24 09:30:10;;;;;;;14.70;12.18;;;6.60;77.90;;;;;;5010092;28;20026;-61
2022/01/24 09:32:36;;;;;;;15.73;12.68;;;6.60;77.70;;;;;;5008224;28;20123;-61
2022/01/24 09:35:04;;;;;;;17.27;13.43;;;6.60;77.50;;;;;;5008230;28;20022;-69
2022/01/24 09:37:30;;;;;;;16.02;13.18;;;6.50;77.30;;;;;;5008865;28;20033;-70
2022/01/24 09:39:56;;;;;;;19.20;13.95;;;6.60;77.10;;;;;;5009845;28;20080;-61
2022/01/24 09:42:22;;;;;;;17.25;12.85;;;6.60;77.00;;;;;;4992135;28;20462;-61
2022/01/24 09:44:48;;;;;;;18.50;13.65;;;6.60;77.10;;;;;;5009767;28;20038;-61
2022/01/24 09:47:16;;;;;;;16.02;13.57;;;6.60;77.00;;;;;;5009022;28;20405;-61
2022/01/24 09:49:43;;;;;;;14.57;12.93;;;6.60;77.40;;;;;;5010078;28;20042;-69
2022/01/24 09:52:09;;;;;;;13.93;11.98;;;6.60;77.40;;;;;;5009641;28;20473;-69
2022/01/24 09:54:35;;;;;;;13.20;11.23;;;6.60;77.50;;;;;;4991971;28;20026;-70
2022/01/24 09:57:00;;;;;;;14.60;12.32;;;6.70;77.60;;;;;;5009523;28;20508;-70
2022/01/24 09:59:28;;;;;;;17.05;12.52;;;6.70;77.80;;;;;;5012684;28;20076;-69
2022/01/24 10:01:54;;;;;;;16.67;13.80;;;6.70;77.70;;;;;;5025719;28;20095;-61
2022/01/24 10:04:20;;;;;;;16.92;13.02;;;6.70;77.10;;;;;;5021576;28;20037;-61
2022/01/24 10:07:05;;;;;;;14.63;11.80;;;6.70;77.10;;;;;;5020526;28;20419;-61
2022/01/24 10:09:54;;;;;;;14.75;12.23;;;6.70;77.30;;;;;;5011590;28;20030;-61
2022/01/24 10:12:32;;;;;;;14.40;12.35;;;6.70;77.10;;;;;;5012957;28;20451;-61
2022/01/24 10:17:45;;;;;;;14.20;12.43;;;6.70;76.80;;;;;;5024545;28;20044;-61
2022/01/24 10:20:28;;;;;;;10.68;9.57;;;6.70;77.10;;;;;;5013963;28;20310;-61
2022/01/24 10:23:12;;;;;;;;;;;6.60;77.10;;;;;;5020215;28;20021;-69
2022/01/24 10:26:00;;;;;;;12.30;10.10;;;6.60;77.10;;;;;;5017138;28;20350;-69
2022/01/24 10:28:38;;;;;;;10.52;9.40;;;6.60;77.10;;;;;;4997891;28;20026;-69
2022/01/24 10:31:16;;;;;;;10.43;9.43;;;6.60;77.10;;;;;;5009253;28;20037;-69
2022/01/24 10:34:06;;;;;;;11.00;9.95;;;6.60;77.20;;;;;;4991355;28;20112;-69
2022/01/24 10:36:47;;;;;;;11.93;10.73;;;6.70;77.30;;;;;;5008179;28;20026;-69
2022/01/24 10:39:19;;;;;;;12.15;10.93;;;6.60;77.40;;;;;;5009320;28;20347;-69
2022/01/24 10:42:09;;;;;;;13.43;12.13;;;6.70;77.70;;;;;;5009108;28;20033;-69
2022/01/24 10:44:36;;;;;;;14.45;12.73;;;6.80;77.50;;;;;;5013095;28;20492;-69
2022/01/24 10:47:17;;;;;;;13.88;12.48;;;6.80;77.30;;;;;;5012462;28;20026;-69
2022/01/24 10:49:44;;;;;;;15.00;12.88;;;6.70;77.40;;;;;;5013340;28;20511;-69
2022/01/24 10:52:13;;;;;;;14.32;12.57;;;6.80;77.60;;;;;;5012720;28;20052;-69
2022/01/24 10:54:39;;;;;;;15.60;13.90;;;6.80;77.40;;;;;;5012220;28;20030;-69
2022/01/24 10:57:05;;;;;;;15.48;14.07;;;6.80;77.10;;;;;;5024205;28;20491;-69
2022/01/24 10:59:34;;;;;;;15.65;14.15;;;6.80;76.80;;;;;;5032781;28;20116;-69
2022/01/24 11:02:04;;;;;;;15.07;13.52;;;6.80;77.00;;;;;;5031691;28;20393;-69
2022/01/24 11:04:33;;;;;;;14.40;13.00;;;6.70;77.00;;;;;;5013987;28;20052;-69
2022/01/24 11:07:01;;;;;;;15.27;13.68;;;6.70;77.00;;;;;;5032161;28;20068;-69
2022/01/24 11:09:35;;;;;;;15.68;14.07;;;6.70;76.80;;;;;;5032359;28;20025;-69
2022/01/24 11:12:08;;;;;;;15.95;14.35;;;6.70;76.80;;;;;;5032490;28;20095;-69
2022/01/24 11:14:36;;;;;;;17.20;14.02;;;6.70;76.80;;;;;;5032240;28;20060;-69
2022/01/24 11:17:02;;;;;;;14.63;13.10;;;6.70;76.10;;;;;;5031594;28;20560;-69
2022/01/24 11:22:06;;;;;;;15.38;13.82;;;6.70;76.30;;;;;;5032530;28;20096;-69
2022/01/24 11:24:41;;;;;;;16.42;14.73;;;6.70;76.40;;;;;;5031531;28;20067;-69
2022/01/24 11:27:08;;;;;;;16.35;14.70;;;6.80;76.10;;;;;;5014163;28;20049;-69
2022/01/24 11:29:35;;;;;;;15.18;13.57;;;6.80;76.30;;;;;;5014183;28;20026;-67
2022/01/24 11:32:17;;;;;;;14.23;12.75;;;6.80;76.20;;;;;;5014010;28;20042;-67
2022/01/24 11:34:48;;;;;;;15.73;13.50;;;6.80;76.30;;;;;;5031757;28;20040;-67
2022/01/24 11:37:46;;;;;;;15.77;14.07;;;6.80;76.20;;;;;;4997488;28;20053;-67
2022/01/24 11:40:14;;;;;;;16.65;14.98;;;6.90;76.10;;;;;;5013829;28;20488;-67
2022/01/24 11:42:43;;;;;;;18.60;13.98;;;6.90;75.40;;;;;;5014049;28;20021;-68
2022/01/24 11:45:16;;;;;;;16.73;14.70;;;6.90;75.50;;;;;;5030008;28;20033;-67
2022/01/24 11:47:43;;;;;;;17.33;15.30;;;6.90;76.00;;;;;;5034279;28;20129;-67
2022/01/24 11:50:24;;;;;;;17.70;15.57;;;6.90;75.80;;;;;;5030729;28;20033;-67
2022/01/24 11:52:51;;;;;;;17.35;15.52;;;6.90;76.00;;;;;;5031358;28;20369;-67
2022/01/24 11:55:31;;;;;;;16.52;14.82;;;7.00;76.10;;;;;;5028577;28;20057;-68
2022/01/24 11:58:05;;;;;;;15.80;14.10;;;7.00;76.20;;;;;;5016179;28;20371;-67
2022/01/24 12:00:38;;;;;;;18.25;14.90;;;7.00;76.30;;;;;;5029462;28;20033;-67
2022/01/24 12:03:23;;;;;;;17.17;14.98;;;7.00;76.30;;;;;;5030150;28;20025;-67
2022/01/24 12:05:53;;;;;;;16.65;14.88;;;7.00;76.30;;;;;;5030465;28;20029;-67
2022/01/24 12:08:33;;;;;;;16.30;14.45;;;7.00;76.30;;;;;;5030035;28;20080;-68
2022/01/24 12:11:21;;;;;;;15.82;14.20;;;7.00;76.20;;;;;;5031558;28;20033;-67
2022/01/24 12:13:50;;;;;;;18.27;16.40;;;7.00;75.10;;;;;;5027472;28;20024;-68
2022/01/24 12:16:17;;;;;;;17.08;15.38;;;6.90;75.20;;;;;;5025625;28;20135;-67
2022/01/24 12:18:46;;;;;;;18.48;15.73;;;6.90;75.20;;;;;;5028962;28;20033;-67
2022/01/24 12:21:21;;;;;;;16.95;15.25;;;6.80;74.80;;;;;;5011978;28;20041;-67
2022/01/24 12:23:53;;;;;;;18.60;15.70;;;6.80;75.00;;;;;;5028981;28;20017;-67
2022/01/24 12:26:24;;;;;;;15.48;13.77;;;6.80;74.60;;;;;;5029848;28;20054;-67
2022/01/24 12:29:21;;;;;;;15.23;13.73;;;6.80;74.80;;;;;;5025680;28;20469;-67
2022/01/24 12:32:03;;;;;;;16.48;14.68;;;6.80;75.00;;;;;;5006598;28;20079;-67
2022/01/24 12:34:40;;;;;;;17.48;15.77;;;6.80;75.10;;;;;;5027582;28;20034;-69
2022/01/24 12:37:12;;;;;;;17.60;15.80;;;6.80;75.70;;;;;;5029357;28;20388;-70
2022/01/24 12:40:02;;;;;;;18.05;15.55;;;6.80;76.10;;;;;;5029166;28;20025;-67
2022/01/24 12:42:47;;;;;;;18.85;16.13;;;6.90;76.20;;;;;;5026215;28;20099;-68
2022/01/24 12:48:06;;;;;;;18.10;16.25;;;7.00;76.20;;;;;;5028803;28;20048;-67
2022/01/24 12:50:31;;;;;;;17.75;15.95;;;7.00;75.60;;;;;;5022382;28;20029;-67
2022/01/24 12:52:57;;;;;;;20.15;18.10;;;7.00;75.80;;;;;;5026489;28;20574;-67
2022/01/24 12:55:22;;;;;;;17.50;15.70;;;7.00;76.60;;;;;;5011360;28;20057;-67
2022/01/24 12:57:48;;;;;;;17.77;15.98;;;7.00;76.10;;;;;;5013046;28;20029;-70
2022/01/24 13:00:18;;;;;;;16.13;14.52;;;6.90;75.80;;;;;;5029201;28;20630;-67
2022/01/24 13:02:44;;;;;;;16.67;14.27;;;6.90;76.00;;;;;;5029011;28;20436;-67
2022/01/24 13:05:23;;;;;;;17.85;14.77;;;6.90;76.10;;;;;;5028790;28;20030;-67
2022/01/24 13:07:54;;;;;;;19.20;15.55;;;7.00;75.90;;;;;;5028926;28;20075;-67
2022/01/24 13:10:26;;;;;;;18.85;16.85;;;7.00;75.80;;;;;;5029112;28;20048;-67
2022/01/24 13:13:05;;;;;;;19.25;17.30;;;7.00;75.90;;;;;;5028595;28;20464;-67
2022/01/24 13:23:39;;;;;;;20.17;18.10;;;7.10;76.10;;;;;;5028871;28;20560;-67
2022/01/24 13:26:06;;;;;;;19.08;17.17;;;7.10;76.00;;;;;;5027976;28;20056;-67
2022/01/24 13:28:32;;;;;;;18.88;16.98;;;7.10;75.60;;;;;;5010859;28;20112;-67
2022/01/24 13:31:01;;;;;;;18.67;16.77;;;7.10;75.50;;;;;;5028522;28;20080;-67
2022/01/24 13:33:28;;;;;;;20.05;18.08;;;7.10;75.70;;;;;;5025803;28;20033;-67
2022/01/24 13:35:59;;;;;;;22.08;19.42;;;7.20;75.40;;;;;;5033458;28;20029;-67
2022/01/24 13:38:40;;;;;;;21.77;19.65;;;7.10;74.70;;;;;;4998923;28;20025;-68
2022/01/24 13:41:22;;;;;;;21.23;19.05;;;7.10;75.00;;;;;;5029455;28;20116;-67
2022/01/24 13:44:04;;;;;;;19.85;17.85;;;7.10;75.40;;;;;;5027927;28;20030;-67
2022/01/24 13:46:35;;;;;;;19.47;17.37;;;7.10;75.70;;;;;;5023659;28;20032;-68
2022/01/24 13:49:08;;;;;;;19.23;17.23;;;7.10;75.70;;;;;;5028205;28;20778;-67
2022/01/24 13:51:39;;;;;;;19.45;17.45;;;7.10;75.80;;;;;;5027946;28;20022;-68
2022/01/24 13:54:10;;;;;;;18.95;17.02;;;7.10;75.70;;;;;;5026054;28;20028;-68
2022/01/24 13:56:40;;;;;;;19.77;17.67;;;7.10;75.60;;;;;;5027843;28;20017;-68
2022/01/24 13:59:19;;;;;;;19.98;17.92;;;7.10;75.60;;;;;;5024722;28;20068;-67
2022/01/24 14:01:59;;;;;;;18.67;16.77;;;7.10;76.10;;;;;;5021432;28;20111;-68
2022/01/24 14:04:36;;;;;;;21.73;18.08;;;7.10;75.80;;;;;;5026633;28;20030;-67
2022/01/24 14:07:05;;;;;;;20.00;17.45;;;7.20;75.80;;;;;;5021500;28;20034;-68
2022/01/24 14:09:37;;;;;;;20.48;18.27;;;7.20;75.40;;;;;;5024342;28;20561;-68
2022/01/24 14:12:03;;;;;;;19.03;17.13;;;7.10;75.10;;;;;;5028711;28;20105;-67
2022/01/24 14:14:42;;;;;;;18.55;16.65;;;7.20;75.00;;;;;;5025653;28;20025;-68
2022/01/24 14:17:34;;;;;;;18.33;16.42;;;7.20;75.10;;;;;;5029724;28;20036;-67
2022/01/24 14:20:17;;;;;;;19.50;17.60;;;7.20;75.20;;;;;;5033094;28;20041;-67
2022/01/24 14:22:45;;;;;;;18.35;16.52;;;7.20;75.50;;;;;;5033654;28;20029;-67
2022/01/24 14:25:34;;;;;;;21.23;18.38;;;7.20;75.30;;;;;;5033711;28;20037;-67
2022/01/24 14:28:08;;;;;;;19.38;17.38;;;7.20;75.60;;;;;;5034137;28;20436;-67
2022/01/24 14:30:40;;;;;;;18.83;16.90;;;7.20;75.40;;;;;;5033825;28;20017;-67
2022/01/24 14:33:17;;;;;;;19.45;17.40;;;7.20;75.20;;;;;;5015525;28;20049;-67
2022/01/24 14:36:11;;;;;;;20.55;18.05;;;7.20;75.50;;;;;;5033745;28;20503;-67
2022/01/24 14:38:43;;;;;;;20.52;18.50;;;7.20;75.60;;;;;;5018758;28;20112;-67
2022/01/24 14:41:27;;;;;;;18.77;16.47;;;7.20;76.40;;;;;;5015372;28;20485;-67
2022/01/24 14:46:39;;;;;;;20.00;17.98;;;7.20;75.40;;;;;;5018213;28;20079;-67
2022/01/24 14:49:07;;;;;;;19.85;17.80;;;7.20;75.60;;;;;;5034638;28;20018;-67
2022/01/24 14:51:35;;;;;;;21.48;19.27;;;7.20;75.40;;;;;;5033444;28;20087;-67
2022/01/24 14:54:09;;;;;;;20.25;18.10;;;7.20;75.60;;;;;;5033024;28;20022;-67
2022/01/24 14:56:40;;;;;;;20.23;18.23;;;7.20;75.70;;;;;;5033741;28;20041;-68